createdAt,value
2023-04-28T00:00:02.360Z,13.84
2023-04-28T00:02:34.320Z,13.86
2023-04-28T00:05:02.334Z,13.85
2023-04-28T00:07:30.214Z,13.85
2023-04-28T00:09:57.921Z,13.85
2023-04-28T00:12:25.818Z,13.85
2023-04-28T00:14:53.527Z,13.86
2023-04-28T00:17:21.419Z,13.86
2023-04-28T00:19:51.452Z,13.85
2023-04-28T00:22:19.253Z,13.81
2023-04-28T00:24:47.026Z,13.79
2023-04-28T00:27:14.924Z,13.73
2023-04-28T00:29:42.651Z,13.73
2023-04-28T00:32:10.609Z,13.75
2023-04-28T00:34:38.426Z,13.73
2023-04-28T00:37:07.481Z,13.76
2023-04-28T00:39:35.417Z,13.75
2023-04-28T00:42:04.156Z,13.76
2023-04-28T00:44:31.978Z,13.72
2023-04-28T00:47:00.499Z,13.69
2023-04-28T00:49:28.427Z,13.68
2023-04-28T00:51:56.326Z,13.66
2023-04-28T00:54:25.996Z,13.68
2023-04-28T00:56:53.860Z,13.33
2023-04-28T00:59:21.566Z,13.66
2023-04-28T01:01:49.389Z,13.63
2023-04-28T01:04:18.582Z,13.62
2023-04-28T01:06:47.999Z,13.56
2023-04-28T01:09:15.936Z,13.57
2023-04-28T01:11:45.107Z,13.55
2023-04-28T01:14:18.664Z,13.53
2023-04-28T01:16:47.439Z,13.53
2023-04-28T01:19:22.135Z,13.54
2023-04-28T01:21:50.644Z,13.49
2023-04-28T01:24:24.069Z,13.46
2023-04-28T01:26:51.928Z,13.42
2023-04-28T01:29:19.732Z,13.41
2023-04-28T01:31:47.604Z,13.37
2023-04-28T01:34:15.557Z,13.37
2023-04-28T01:36:43.422Z,13.38
2023-04-28T01:39:11.695Z,13.35
2023-04-28T01:41:43.194Z,13.34
2023-04-28T01:44:12.435Z,13.17
2023-04-28T01:46:40.364Z,13.31
2023-04-28T01:49:08.419Z,13.31
2023-04-28T01:51:36.137Z,13.23
2023-04-28T01:54:03.936Z,13.30
2023-04-28T01:56:31.676Z,13.29
2023-04-28T01:59:01.583Z,13.28
2023-04-28T02:01:29.595Z,13.26
2023-04-28T02:03:57.764Z,13.26
2023-04-28T02:06:27.534Z,13.27
2023-04-28T02:08:55.399Z,13.22
2023-04-28T02:11:23.208Z,13.14
2023-04-28T02:13:56.082Z,13.14
2023-04-28T02:16:25.963Z,13.17
2023-04-28T02:18:53.775Z,13.16
2023-04-28T02:21:21.478Z,13.19
2023-04-28T02:23:50.349Z,13.17
2023-04-28T02:26:18.110Z,13.15
2023-04-28T02:28:46.043Z,13.14
2023-04-28T02:31:14.413Z,13.13
2023-04-28T02:33:43.603Z,13.13
2023-04-28T02:36:11.822Z,13.09
2023-04-28T02:38:41.417Z,13.12
2023-04-28T02:41:09.894Z,13.16
2023-04-28T02:43:38.850Z,13.09
2023-04-28T02:46:06.985Z,12.92
2023-04-28T02:48:37.277Z,13.16
2023-04-28T02:51:06.680Z,13.10
2023-04-28T02:53:35.385Z,13.14
2023-04-28T02:56:04.549Z,13.14
2023-04-28T02:58:33.565Z,13.14
2023-04-28T03:01:01.647Z,13.10
2023-04-28T03:03:29.626Z,13.11
2023-04-28T03:05:57.841Z,13.12
2023-04-28T03:08:27.109Z,13.11
2023-04-28T03:10:55.657Z,13.13
2023-04-28T03:13:23.564Z,13.12
2023-04-28T03:15:52.563Z,13.13
2023-04-28T03:18:20.478Z,13.14
2023-04-28T03:20:48.243Z,13.17
2023-04-28T03:23:16.068Z,13.17
2023-04-28T03:25:45.121Z,13.11
2023-04-28T03:28:13.083Z,13.16
2023-04-28T03:30:41.257Z,13.17
2023-04-28T03:33:09.017Z,13.16
2023-04-28T03:35:36.769Z,13.14
2023-04-28T03:38:04.852Z,13.10
2023-04-28T03:40:32.763Z,13.10
2023-04-28T03:43:13.883Z,12.99
2023-04-28T03:45:50.376Z,13.10
2023-04-28T03:48:18.293Z,13.06
2023-04-28T03:50:46.444Z,13.02
2023-04-28T03:53:14.648Z,13.01
2023-04-28T03:55:42.509Z,13.03
2023-04-28T03:58:10.437Z,13.04
2023-04-28T04:00:39.578Z,13.03
2023-04-28T04:03:07.513Z,13.01
2023-04-28T04:05:35.465Z,13.03
2023-04-28T04:08:03.275Z,12.89
2023-04-28T04:10:31.249Z,13.01
2023-04-28T04:12:59.215Z,12.99
2023-04-28T04:15:27.086Z,13.00
2023-04-28T04:17:56.545Z,12.99
2023-04-28T04:20:26.736Z,12.96
2023-04-28T04:23:00.635Z,12.97
2023-04-28T04:25:32.246Z,12.96
2023-04-28T04:28:00.566Z,12.97
2023-04-28T04:30:28.524Z,12.97
2023-04-28T04:32:57.855Z,12.95
2023-04-28T04:35:25.629Z,12.98
2023-04-28T04:37:53.798Z,12.98
2023-04-28T04:40:21.869Z,13.00
2023-04-28T04:42:51.281Z,12.99
2023-04-28T04:45:20.335Z,12.98
2023-04-28T04:47:49.482Z,12.89
2023-04-28T04:50:19.761Z,12.93
2023-04-28T04:52:47.473Z,12.94
2023-04-28T04:55:15.137Z,12.93
2023-04-28T04:57:43.544Z,12.99
2023-04-28T05:00:29.614Z,12.85
2023-04-28T05:02:57.647Z,12.96
2023-04-28T05:05:27.100Z,13.01
2023-04-28T05:08:13.150Z,12.86
2023-04-28T05:10:41.776Z,12.99
2023-04-28T05:13:10.099Z,12.99
2023-04-28T05:15:38.000Z,13.02
2023-04-28T05:18:28.893Z,12.99
2023-04-28T05:20:58.012Z,12.99
2023-04-28T05:23:25.962Z,12.96
2023-04-28T05:25:53.719Z,12.94
2023-04-28T05:28:22.249Z,12.99
2023-04-28T05:30:53.264Z,13.00
2023-04-28T05:33:21.013Z,13.00
2023-04-28T05:35:49.823Z,12.99
2023-04-28T05:38:19.354Z,13.01
2023-04-28T05:40:50.263Z,13.03
2023-04-28T05:43:18.534Z,13.03
2023-04-28T05:45:46.449Z,13.03
2023-04-28T05:48:14.624Z,13.04
2023-04-28T05:50:42.508Z,13.07
2023-04-28T05:53:11.873Z,13.11
2023-04-28T05:55:47.098Z,13.13
2023-04-28T05:58:15.754Z,13.14
2023-04-28T06:00:43.541Z,13.16
2023-04-28T06:03:11.614Z,13.08
2023-04-28T06:05:39.994Z,13.16
2023-04-28T06:08:08.798Z,13.19
2023-04-28T06:10:36.625Z,13.14
2023-04-28T06:13:06.536Z,13.20
2023-04-28T06:15:34.501Z,13.25
2023-04-28T06:18:02.453Z,13.29
2023-04-28T06:20:30.256Z,13.33
2023-04-28T06:22:58.616Z,13.32
2023-04-28T06:25:26.521Z,13.29
2023-04-28T06:27:54.299Z,13.33
2023-04-28T06:30:24.296Z,13.32
2023-04-28T06:32:52.409Z,13.31
2023-04-28T06:35:20.248Z,13.33
2023-04-28T06:37:48.036Z,13.37
2023-04-28T06:40:16.766Z,13.21
2023-04-28T06:42:52.025Z,13.56
2023-04-28T06:45:26.422Z,13.67
2023-04-28T06:47:56.825Z,13.71
2023-04-28T06:50:24.702Z,13.73
2023-04-28T06:52:52.526Z,13.75
2023-04-28T06:55:20.633Z,13.79
2023-04-28T06:57:48.418Z,13.75
2023-04-28T07:00:16.958Z,13.79
2023-04-28T07:02:46.082Z,13.80
2023-04-28T07:05:16.038Z,13.85
2023-04-28T07:07:44.312Z,13.85
2023-04-28T07:10:13.263Z,13.82
2023-04-28T07:12:40.977Z,13.80
2023-04-28T07:15:10.305Z,13.77
2023-04-28T07:17:38.568Z,13.88
2023-04-28T07:20:09.021Z,13.90
2023-04-28T07:22:36.774Z,13.85
2023-04-28T07:25:07.501Z,13.85
2023-04-28T07:27:35.279Z,13.80
2023-04-28T07:30:11.572Z,13.91
2023-04-28T07:32:46.716Z,13.99
2023-04-28T07:35:16.078Z,14.00
2023-04-28T07:37:44.027Z,13.94
2023-04-28T07:40:12.409Z,13.95
2023-04-28T07:42:40.140Z,13.98
2023-04-28T07:45:11.079Z,13.77
2023-04-28T07:47:39.287Z,13.83
2023-04-28T07:50:08.251Z,14.06
2023-04-28T07:52:37.402Z,14.22
2023-04-28T07:55:06.212Z,14.25
2023-04-28T07:57:34.042Z,14.33
2023-04-28T08:00:02.089Z,14.33
2023-04-28T08:02:39.655Z,14.34
2023-04-28T08:05:09.243Z,14.34
2023-04-28T08:07:38.725Z,14.25
2023-04-28T08:10:07.313Z,14.28
2023-04-28T08:12:35.165Z,14.41
2023-04-28T08:15:03.867Z,14.37
2023-04-28T08:17:31.621Z,14.36
2023-04-28T08:19:59.694Z,14.34
2023-04-28T08:22:27.564Z,14.44
2023-04-28T08:24:56.711Z,14.51
2023-04-28T08:27:25.730Z,14.60
2023-04-28T08:29:53.824Z,14.56
2023-04-28T08:32:21.541Z,14.63
2023-04-28T08:34:49.432Z,14.69
2023-04-28T08:37:17.245Z,14.73
2023-04-28T08:39:44.968Z,14.75
2023-04-28T08:42:14.733Z,14.89
2023-04-28T08:44:42.646Z,14.83
2023-04-28T08:47:14.159Z,14.95
2023-04-28T08:49:42.784Z,14.97
2023-04-28T08:52:13.405Z,14.98
2023-04-28T08:54:42.094Z,14.94
2023-04-28T08:57:10.910Z,14.99
2023-04-28T08:59:49.633Z,15.00
2023-04-28T09:02:17.597Z,14.98
2023-04-28T09:04:45.646Z,14.99
2023-04-28T09:07:13.816Z,14.88
2023-04-28T09:09:41.994Z,15.04
2023-04-28T09:12:09.780Z,15.04
2023-04-28T09:14:40.658Z,15.08
2023-04-28T09:17:14.256Z,15.13
2023-04-28T09:19:43.533Z,15.12
2023-04-28T09:22:25.672Z,15.12
2023-04-28T09:24:55.316Z,15.07
2023-04-28T09:27:28.255Z,15.05
2023-04-28T09:29:56.498Z,15.03
2023-04-28T09:32:29.466Z,15.02
2023-04-28T09:34:59.959Z,15.03
2023-04-28T09:37:30.902Z,15.11
2023-04-28T09:40:04.552Z,14.99
2023-04-28T09:42:34.211Z,15.18
2023-04-28T09:45:03.349Z,15.07
2023-04-28T09:47:37.123Z,15.12
2023-04-28T09:50:06.896Z,15.12
2023-04-28T09:52:35.791Z,15.04
2023-04-28T09:55:04.660Z,15.02
2023-04-28T09:57:34.366Z,15.02
2023-04-28T10:00:08.269Z,14.99
2023-04-28T10:02:43.918Z,15.00
2023-04-28T10:05:13.159Z,14.94
2023-04-28T10:07:43.115Z,14.92
2023-04-28T10:10:14.796Z,14.91
2023-04-28T10:12:44.279Z,14.98
2023-04-28T10:15:14.261Z,14.96
2023-04-28T10:17:43.538Z,15.18
2023-04-28T10:20:12.924Z,15.20
2023-04-28T10:22:58.334Z,15.27
2023-04-28T10:25:28.471Z,15.23
2023-04-28T10:27:56.501Z,15.27
2023-04-28T10:30:30.103Z,15.25
2023-04-28T10:33:35.689Z,15.28
2023-04-28T10:36:04.476Z,15.16
2023-04-28T10:38:32.264Z,15.22
2023-04-28T10:41:02.549Z,15.24
2023-04-28T10:43:39.613Z,15.24
2023-04-28T10:46:09.262Z,15.23
2023-04-28T10:48:57.913Z,15.25
2023-04-28T10:51:33.370Z,15.16
2023-04-28T10:54:20.540Z,15.28
2023-04-28T10:57:17.081Z,15.37
2023-04-28T10:59:44.878Z,15.35
2023-04-28T11:02:44.466Z,15.40
2023-04-28T11:05:19.229Z,15.53
2023-04-28T11:08:30.886Z,15.74
2023-04-28T11:11:22.490Z,15.85
2023-04-28T11:13:51.099Z,15.95
2023-04-28T11:16:21.225Z,15.95
2023-04-28T11:18:55.950Z,15.98
2023-04-28T11:21:28.163Z,16.06
2023-04-28T11:23:56.449Z,16.17
2023-04-28T11:26:24.669Z,16.12
2023-04-28T11:28:54.085Z,16.32
2023-04-28T11:31:24.322Z,16.44
2023-04-28T11:33:59.127Z,16.44
2023-04-28T11:36:31.863Z,16.50
2023-04-28T11:38:59.753Z,16.60
2023-04-28T11:41:27.520Z,16.69
2023-04-28T11:43:55.454Z,16.49
2023-04-28T11:46:26.782Z,16.46
2023-04-28T11:49:02.961Z,16.94
2023-04-28T11:51:38.057Z,17.00
2023-04-28T11:54:07.951Z,16.94
2023-04-28T11:56:39.552Z,17.03
2023-04-28T11:59:09.344Z,17.09
2023-04-28T12:01:46.705Z,17.20
2023-04-28T12:04:15.111Z,17.46
2023-04-28T12:06:44.452Z,17.61
2023-04-28T12:09:21.494Z,17.98
2023-04-28T12:11:57.502Z,18.13
2023-04-28T12:14:25.867Z,18.66
2023-04-28T12:16:53.837Z,18.62
2023-04-28T12:19:22.079Z,18.53
2023-04-28T12:22:06.238Z,18.94
2023-04-28T12:24:35.910Z,18.80
2023-04-28T12:27:17.648Z,18.97
2023-04-28T12:29:47.160Z,18.36
2023-04-28T12:32:15.888Z,18.24
2023-04-28T12:34:45.541Z,18.21
2023-04-28T12:37:15.274Z,18.59
2023-04-28T12:39:43.507Z,19.04
2023-04-28T12:42:11.822Z,19.19
2023-04-28T12:44:40.821Z,19.46
2023-04-28T12:47:10.913Z,20.30
2023-04-28T12:49:39.519Z,20.72
2023-04-28T12:52:07.795Z,21.57
2023-04-28T12:54:37.429Z,20.81
2023-04-28T12:57:05.941Z,20.30
2023-04-28T12:59:33.720Z,20.64
2023-04-28T13:02:01.437Z,21.01
2023-04-28T13:04:29.984Z,22.01
2023-04-28T13:06:58.869Z,21.70
2023-04-28T13:09:27.339Z,20.76
2023-04-28T13:11:56.825Z,20.08
2023-04-28T13:14:24.666Z,19.60
2023-04-28T13:16:53.482Z,19.28
2023-04-28T13:19:21.328Z,19.03
2023-04-28T13:21:49.188Z,18.80
2023-04-28T13:24:17.057Z,18.57
2023-04-28T13:26:46.856Z,19.23
2023-04-28T13:29:16.394Z,20.80
2023-04-28T13:31:44.795Z,21.66
2023-04-28T13:34:16.091Z,22.16
2023-04-28T13:36:44.621Z,22.70
2023-04-28T13:39:14.706Z,22.98
2023-04-28T13:41:42.730Z,23.31
2023-04-28T13:44:10.686Z,23.52
2023-04-28T13:46:40.074Z,23.54
2023-04-28T13:49:07.797Z,23.09
2023-04-28T13:51:35.778Z,22.52
2023-04-28T13:54:04.511Z,21.73
2023-04-28T13:56:32.699Z,21.36
2023-04-28T13:59:00.423Z,20.93
2023-04-28T14:01:28.206Z,20.53
2023-04-28T14:03:57.632Z,20.09
2023-04-28T14:06:26.063Z,19.96
2023-04-28T14:08:53.745Z,19.85
2023-04-28T14:11:21.543Z,19.67
2023-04-28T14:13:49.321Z,19.48
2023-04-28T14:16:17.207Z,19.42
2023-04-28T14:18:44.936Z,19.53
2023-04-28T14:21:14.002Z,19.65
2023-04-28T14:23:41.812Z,19.98
2023-04-28T14:26:09.602Z,20.29
2023-04-28T14:28:37.723Z,20.45
2023-04-28T14:31:07.366Z,20.80
2023-04-28T14:33:35.334Z,20.30
2023-04-28T14:36:04.096Z,20.20
2023-04-28T14:38:33.275Z,19.92
2023-04-28T14:41:01.253Z,20.02
2023-04-28T14:43:29.014Z,20.08
2023-04-28T14:49:43.142Z,20.52
2023-04-28T14:52:10.939Z,20.17
2023-04-28T14:54:39.995Z,19.92
2023-04-28T14:57:08.185Z,19.80
2023-04-28T14:59:36.616Z,19.62
2023-04-28T15:02:04.466Z,20.19
2023-04-28T15:04:33.137Z,20.52
2023-04-28T15:07:01.781Z,20.65
2023-04-28T15:09:29.574Z,20.83
2023-04-28T15:11:58.795Z,20.93
2023-04-28T15:14:26.741Z,21.00
2023-04-28T15:16:54.646Z,20.83
2023-04-28T15:19:22.911Z,20.47
2023-04-28T15:21:50.941Z,20.42
2023-04-28T15:24:21.042Z,20.50
2023-04-28T15:26:48.916Z,20.40
2023-04-28T15:29:18.916Z,20.03
2023-04-28T15:31:47.126Z,20.08
2023-04-28T15:34:14.889Z,20.32
2023-04-28T15:36:44.819Z,20.36
2023-04-28T15:39:12.643Z,20.36
2023-04-28T15:41:40.570Z,20.40
2023-04-28T15:44:09.890Z,20.22
2023-04-28T15:46:39.119Z,20.28
2023-04-28T15:49:06.875Z,20.22
2023-04-28T15:51:34.758Z,19.81
2023-04-28T15:54:02.948Z,19.61
2023-04-28T15:56:30.994Z,19.60
2023-04-28T15:58:58.873Z,19.57
2023-04-28T16:01:26.698Z,19.49
2023-04-28T16:03:56.258Z,19.31
2023-04-28T16:06:25.454Z,19.33
2023-04-28T16:08:53.388Z,19.42
2023-04-28T16:11:21.353Z,19.63
2023-04-28T16:13:49.854Z,19.89
2023-04-28T16:16:17.745Z,20.08
2023-04-28T16:18:45.440Z,20.05
2023-04-28T16:21:17.231Z,19.91
2023-04-28T16:23:45.397Z,19.94
2023-04-28T16:26:13.276Z,20.17
2023-04-28T16:28:41.305Z,20.15
2023-04-28T16:31:11.486Z,19.99
2023-04-28T16:33:39.210Z,19.95
2023-04-28T16:36:07.240Z,19.93
2023-04-28T16:38:36.484Z,19.66
2023-04-28T16:41:06.445Z,19.37
2023-04-28T16:43:36.097Z,19.01
2023-04-28T16:46:04.408Z,18.75
2023-04-28T16:48:32.216Z,18.56
2023-04-28T16:50:59.929Z,18.43
2023-04-28T16:53:27.737Z,18.28
2023-04-28T16:55:56.778Z,18.17
2023-04-28T16:58:24.989Z,18.02
2023-04-28T17:00:53.216Z,17.90
2023-04-28T17:03:21.211Z,17.82
2023-04-28T17:05:49.037Z,17.80
2023-04-28T17:08:16.861Z,17.71
2023-04-28T17:10:44.636Z,17.69
2023-04-28T17:13:13.868Z,17.65
2023-04-28T17:15:41.718Z,17.62
2023-04-28T17:18:09.537Z,17.57
2023-04-28T17:20:38.308Z,17.53
2023-04-28T17:23:06.018Z,17.46
2023-04-28T17:25:33.775Z,17.40
2023-04-28T17:28:01.525Z,17.36
2023-04-28T17:30:30.802Z,17.35
2023-04-28T17:32:58.815Z,17.27
2023-04-28T17:35:27.186Z,17.27
2023-04-28T17:37:55.039Z,17.22
2023-04-28T17:40:24.065Z,17.23
2023-04-28T17:42:51.989Z,17.21
2023-04-28T17:45:19.741Z,17.20
2023-04-28T17:47:49.085Z,17.14
2023-04-28T17:50:17.470Z,17.15
2023-04-28T17:52:45.179Z,17.14
2023-04-28T17:55:13.146Z,17.11
2023-04-28T17:57:40.849Z,17.07
2023-04-28T18:00:10.244Z,17.06
2023-04-28T18:02:40.768Z,17.00
2023-04-28T18:05:10.575Z,16.99
2023-04-28T18:07:38.547Z,16.96
2023-04-28T18:10:07.269Z,16.94
2023-04-28T18:12:35.122Z,16.93
2023-04-28T18:15:02.949Z,16.89
2023-04-28T18:17:30.777Z,16.84
2023-04-28T18:19:58.600Z,16.83
2023-04-28T18:22:28.045Z,16.79
2023-04-28T18:24:55.766Z,16.60
2023-04-28T18:27:23.480Z,16.71
2023-04-28T18:29:51.284Z,16.70
2023-04-28T18:32:19.391Z,16.68
2023-04-28T18:34:47.324Z,16.66
2023-04-28T18:37:15.098Z,16.59
2023-04-28T18:39:44.348Z,16.61
2023-04-28T18:42:12.212Z,16.60
2023-04-28T18:44:40.800Z,16.60
2023-04-28T18:47:08.897Z,16.58
2023-04-28T18:49:38.064Z,16.58
2023-04-28T18:52:05.874Z,16.57
2023-04-28T18:54:33.760Z,16.52
2023-04-28T18:57:03.446Z,16.54
2023-04-28T18:59:31.265Z,16.52
2023-04-28T19:02:00.828Z,16.49
2023-04-28T19:04:29.392Z,16.48
2023-04-28T19:06:57.280Z,16.49
2023-04-28T19:09:25.093Z,16.47
2023-04-28T19:11:53.669Z,16.48
2023-04-28T19:14:22.815Z,16.44
2023-04-28T19:16:50.698Z,16.43
2023-04-28T19:19:18.469Z,16.42
2023-04-28T19:21:46.189Z,16.38
2023-04-28T19:24:13.947Z,16.39
2023-04-28T19:26:41.710Z,16.36
2023-04-28T19:29:09.436Z,16.36
2023-04-28T19:31:38.555Z,16.32
2023-04-28T19:34:06.760Z,16.31
2023-04-28T19:36:34.536Z,16.29
2023-04-28T19:39:02.284Z,16.29
2023-04-28T19:41:30.392Z,16.19
2023-04-28T19:43:58.271Z,16.25
2023-04-28T19:46:26.083Z,16.24
2023-04-28T19:48:55.238Z,16.25
2023-04-28T19:51:23.080Z,16.26
2023-04-28T19:53:52.358Z,16.23
2023-04-28T19:56:20.552Z,16.18
2023-04-28T19:58:48.668Z,16.24
2023-04-28T20:01:16.776Z,16.25
2023-04-28T20:03:44.667Z,16.21
2023-04-28T20:06:17.606Z,16.08
2023-04-28T20:08:45.783Z,16.20
2023-04-28T20:11:15.020Z,16.17
2023-04-28T20:13:42.758Z,16.14
2023-04-28T20:16:10.742Z,16.16
2023-04-28T20:18:38.492Z,16.15
2023-04-28T20:21:06.533Z,16.12
2023-04-28T20:23:36.700Z,16.12
2023-04-28T20:26:05.334Z,16.14
2023-04-28T20:28:33.168Z,16.11
2023-04-28T20:31:01.400Z,16.11
2023-04-28T20:33:29.235Z,16.08
2023-04-28T20:35:56.986Z,16.08
2023-04-28T20:38:24.704Z,16.07
2023-04-28T20:40:54.020Z,16.06
2023-04-28T20:43:24.040Z,16.05
2023-04-28T20:45:52.063Z,15.96
2023-04-28T20:48:20.548Z,16.02
2023-04-28T20:50:50.257Z,16.03
2023-04-28T20:53:18.012Z,16.03
2023-04-28T20:55:45.807Z,16.01
2023-04-28T20:58:15.019Z,15.99
2023-04-28T21:00:44.081Z,15.98
2023-04-28T21:03:15.614Z,15.88
2023-04-28T21:05:44.868Z,15.91
2023-04-28T21:08:12.813Z,15.92
2023-04-28T21:10:40.524Z,15.91
2023-04-28T21:13:09.760Z,15.92
2023-04-28T21:15:45.413Z,15.89
2023-04-28T21:18:13.132Z,15.88
2023-04-28T21:20:41.028Z,15.86
2023-04-28T21:23:08.857Z,15.75
2023-04-28T21:25:37.432Z,15.91
2023-04-28T21:28:05.865Z,15.87
2023-04-28T21:30:33.582Z,15.86
2023-04-28T21:33:03.096Z,15.82
2023-04-28T21:35:31.016Z,15.81
2023-04-28T21:37:58.704Z,15.83
2023-04-28T21:40:26.770Z,15.77
2023-04-28T21:42:54.595Z,15.67
2023-04-28T21:45:23.502Z,15.64
2023-04-28T21:47:51.322Z,15.60
2023-04-28T21:50:20.419Z,15.60
2023-04-28T21:52:48.158Z,15.55
2023-04-28T21:55:16.474Z,15.47
2023-04-28T21:57:44.250Z,15.51
2023-04-28T22:00:12.882Z,15.46
2023-04-28T22:02:43.820Z,15.41
2023-04-28T22:05:11.821Z,15.39
2023-04-28T22:07:41.010Z,15.37
2023-04-28T22:10:10.418Z,15.29
2023-04-28T22:12:38.414Z,15.31
2023-04-28T22:15:07.259Z,15.32
2023-04-28T22:17:35.007Z,15.29
2023-04-28T22:20:02.790Z,15.27
2023-04-28T22:22:31.005Z,15.26
2023-04-28T22:25:00.352Z,15.28
2023-04-28T22:27:28.300Z,15.26
2023-04-28T22:29:56.028Z,15.25
2023-04-28T22:32:23.807Z,15.21
2023-04-28T22:34:51.604Z,15.18
2023-04-28T22:37:19.401Z,15.18
2023-04-28T22:39:47.147Z,15.20
2023-04-28T22:42:16.235Z,15.21
2023-04-28T22:44:44.067Z,15.23
2023-04-28T22:47:11.809Z,15.25
2023-04-28T22:49:39.596Z,15.21
2023-04-28T22:52:07.357Z,15.24
2023-04-28T22:54:36.743Z,15.23
2023-04-28T22:57:04.880Z,15.22
2023-04-28T22:59:35.219Z,15.23
2023-04-28T23:02:03.297Z,15.21
2023-04-28T23:04:31.198Z,15.23
2023-04-28T23:06:59.082Z,15.25
2023-04-28T23:09:26.853Z,15.22
2023-04-28T23:11:54.613Z,15.24
2023-04-28T23:14:22.348Z,15.16
2023-04-28T23:16:51.598Z,15.10
2023-04-28T23:19:20.703Z,14.94
2023-04-28T23:21:48.661Z,14.84
2023-04-28T23:24:16.423Z,14.73
2023-04-28T23:26:44.135Z,14.68
2023-04-28T23:29:12.109Z,14.61
2023-04-28T23:31:40.088Z,14.62
2023-04-28T23:34:09.739Z,14.38
2023-04-28T23:36:38.008Z,14.56
2023-04-28T23:39:06.052Z,14.52
2023-04-28T23:41:34.098Z,14.53
2023-04-28T23:44:01.822Z,14.53
2023-04-28T23:46:30.859Z,14.52
2023-04-28T23:48:58.632Z,14.55
2023-04-28T23:51:27.771Z,14.55
2023-04-28T23:53:55.561Z,14.54
2023-04-28T23:56:23.544Z,14.48
2023-04-28T23:58:51.313Z,14.44
